KCUH

Cushing Municipal Airport

Cushing, Oklahoma, USA
METAR KCUH 260355Z AUTO 00000KT 10SM CLR 19/18 A2987 RMK AO2 T01860180
Observed Flight Rules
May-26 @ 03:55 UTC (19 minutes ago) Visual Flight Rules
Visibility Clouds
10 miles
  • Clear skies
Temperatures Readings
Current 19°C / 66°F
Dewpoint 18°C / 64°F
Humidity 94%
Altimeter 29.87" Hg
Pressure 1012 hPa
Elevation 279
METAR KCUH 260355Z AUTO 00000KT 10SM CLR 19/18 A2987 RMK AO2 T01860180
Observed Flight Rules
May-26 @ 03:55 UTC
(19 minutes ago)
VFR
Clouds
  • Clear skies
Temperature Dewpoint
19°C / 66°F 18°C / 64°F
Humidity Altimeter Pressure
94% 29.87" Hg 1012 hPa